createdAt,value
2018-03-31T00:01:19.935Z,2.60
2018-03-31T00:03:48.490Z,2.60
2018-03-31T00:06:17.066Z,2.60
2018-03-31T00:08:45.681Z,2.40
2018-03-31T00:11:14.254Z,2.33
2018-03-31T00:13:42.859Z,2.63
2018-03-31T00:16:11.437Z,2.60
2018-03-31T00:18:39.995Z,2.30
2018-03-31T00:21:08.627Z,2.33
2018-03-31T00:23:37.198Z,2.43
2018-03-31T00:26:05.801Z,2.10
2018-03-31T00:28:34.371Z,2.27
2018-03-31T00:31:02.980Z,2.10
2018-03-31T00:33:31.667Z,2.17
2018-03-31T00:36:00.256Z,2.23
2018-03-31T00:38:28.819Z,2.03
2018-03-31T00:40:57.397Z,1.83
2018-03-31T00:43:26.019Z,2.00
2018-03-31T00:45:54.571Z,2.27
2018-03-31T00:48:23.122Z,1.90
2018-03-31T00:50:51.779Z,2.20
2018-03-31T00:53:20.333Z,2.23
2018-03-31T00:55:48.967Z,2.10
2018-03-31T00:58:17.538Z,2.20
2018-03-31T01:00:46.145Z,2.30
2018-03-31T01:03:14.711Z,2.47
2018-03-31T01:05:43.310Z,2.57
2018-03-31T01:08:11.869Z,2.70
2018-03-31T01:10:40.488Z,2.80
2018-03-31T01:13:09.049Z,3.00
2018-03-31T01:15:37.615Z,3.63
2018-03-31T01:18:06.186Z,3.33
2018-03-31T01:20:34.736Z,3.23
2018-03-31T01:23:03.324Z,3.47
2018-03-31T01:25:31.902Z,3.40
2018-03-31T01:28:00.655Z,3.83
2018-03-31T01:30:29.204Z,3.60
2018-03-31T01:32:57.785Z,3.50
2018-03-31T01:35:26.363Z,3.77
2018-03-31T01:37:54.930Z,3.77
2018-03-31T01:40:23.608Z,4.00
2018-03-31T01:42:52.165Z,4.00
2018-03-31T01:45:20.818Z,4.17
2018-03-31T01:47:49.415Z,4.17
2018-03-31T01:50:17.959Z,4.50
2018-03-31T01:52:46.588Z,4.33
2018-03-31T01:55:15.154Z,4.50
2018-03-31T01:57:43.703Z,4.10
2018-03-31T02:00:12.276Z,4.67
2018-03-31T02:02:40.851Z,4.77
2018-03-31T02:05:09.522Z,5.00
2018-03-31T02:07:38.099Z,4.50
2018-03-31T02:10:06.710Z,4.90
2018-03-31T02:12:35.305Z,4.90
2018-03-31T02:15:03.873Z,4.80
2018-03-31T02:17:32.478Z,4.67
2018-03-31T02:20:01.022Z,4.70
2018-03-31T02:22:29.657Z,5.03
2018-03-31T02:24:58.211Z,4.70
2018-03-31T02:27:26.802Z,4.87
2018-03-31T02:29:55.382Z,4.80
2018-03-31T02:32:23.939Z,4.87
2018-03-31T02:34:52.503Z,5.23
2018-03-31T02:37:21.063Z,4.93
2018-03-31T02:39:49.662Z,5.23
2018-03-31T02:42:18.259Z,5.23
2018-03-31T02:44:46.821Z,5.13
2018-03-31T02:47:15.390Z,5.60
2018-03-31T02:49:43.958Z,5.27
2018-03-31T02:52:12.604Z,5.17
2018-03-31T02:54:41.153Z,5.43
2018-03-31T02:57:09.714Z,5.30
2018-03-31T02:59:38.270Z,5.23
2018-03-31T03:02:07.650Z,5.40
2018-03-31T03:04:36.268Z,5.13
2018-03-31T03:07:04.848Z,5.37
2018-03-31T03:09:33.414Z,5.60
2018-03-31T03:12:01.970Z,5.07
2018-03-31T03:17:17.035Z,5.17
2018-03-31T03:19:45.613Z,5.10
2018-03-31T03:22:14.190Z,5.03
2018-03-31T03:24:42.740Z,5.40
2018-03-31T03:27:11.318Z,5.20
2018-03-31T03:29:39.886Z,4.87
2018-03-31T03:32:08.430Z,5.23
2018-03-31T03:34:36.996Z,4.60
2018-03-31T03:37:05.579Z,4.47
2018-03-31T03:39:34.162Z,4.37
2018-03-31T03:42:02.803Z,4.60
2018-03-31T03:44:31.351Z,4.63
2018-03-31T03:46:59.927Z,4.40
2018-03-31T03:49:28.489Z,4.53
2018-03-31T03:51:57.145Z,4.70
2018-03-31T03:54:25.737Z,4.80
2018-03-31T03:56:54.423Z,4.73
2018-03-31T03:59:23.021Z,4.50
2018-03-31T04:01:51.603Z,4.57
2018-03-31T04:04:20.170Z,5.00
2018-03-31T04:06:48.729Z,4.50
2018-03-31T04:09:17.300Z,4.20
2018-03-31T04:11:45.846Z,5.07
2018-03-31T04:14:14.399Z,4.30
2018-03-31T04:16:43.029Z,4.50
2018-03-31T04:19:11.615Z,4.33
2018-03-31T04:21:40.182Z,4.33
2018-03-31T04:24:08.734Z,4.23
2018-03-31T04:26:37.303Z,4.00
2018-03-31T04:29:05.877Z,3.93
2018-03-31T04:31:34.482Z,3.80
2018-03-31T04:34:03.059Z,4.20
2018-03-31T04:36:31.614Z,3.67
2018-03-31T04:39:00.175Z,3.87
2018-03-31T04:41:28.750Z,3.63
2018-03-31T04:43:57.397Z,4.10
2018-03-31T04:46:25.949Z,3.83
2018-03-31T04:48:54.519Z,3.93
2018-03-31T04:51:23.090Z,3.83
2018-03-31T04:53:51.636Z,4.20
2018-03-31T04:56:20.211Z,3.80
2018-03-31T04:58:49.714Z,3.57
2018-03-31T05:01:18.329Z,3.97
2018-03-31T05:03:46.886Z,3.80
2018-03-31T05:06:15.443Z,3.67
2018-03-31T05:08:43.985Z,3.77
2018-03-31T05:11:12.553Z,4.00
2018-03-31T05:13:41.133Z,3.87
2018-03-31T05:16:09.685Z,4.27
2018-03-31T05:18:38.247Z,3.73
2018-03-31T05:21:06.822Z,4.20
2018-03-31T05:23:35.387Z,4.60
2018-03-31T05:26:03.938Z,4.40
2018-03-31T05:28:32.509Z,4.70
2018-03-31T05:31:01.082Z,4.20
2018-03-31T05:33:29.647Z,4.97
2018-03-31T05:35:58.256Z,5.03
2018-03-31T05:38:26.822Z,5.20
2018-03-31T05:40:56.071Z,5.00
2018-03-31T05:43:24.636Z,5.30
2018-03-31T05:45:53.188Z,4.43
2018-03-31T05:48:21.814Z,5.20
2018-03-31T05:50:50.400Z,5.30
2018-03-31T05:53:18.988Z,4.83
2018-03-31T05:55:47.578Z,4.37
2018-03-31T05:58:16.172Z,4.73
2018-03-31T06:00:44.821Z,4.60
2018-03-31T06:03:13.511Z,4.60
2018-03-31T06:05:42.140Z,4.57
2018-03-31T06:08:10.727Z,4.63
2018-03-31T06:10:39.378Z,4.47
2018-03-31T06:13:07.914Z,4.20
2018-03-31T06:15:36.478Z,4.50
2018-03-31T06:18:05.147Z,3.80
2018-03-31T06:20:33.767Z,4.00
2018-03-31T06:23:02.343Z,3.47
2018-03-31T06:25:30.947Z,3.67
2018-03-31T06:27:59.542Z,3.53
2018-03-31T06:30:28.113Z,3.97
2018-03-31T06:32:57.121Z,3.57
2018-03-31T06:35:25.714Z,3.83
2018-03-31T06:37:54.286Z,3.80
2018-03-31T06:40:22.897Z,4.07
2018-03-31T06:42:51.474Z,3.73
2018-03-31T06:45:20.027Z,4.17
2018-03-31T06:47:48.654Z,4.50
2018-03-31T06:50:17.236Z,4.03
2018-03-31T06:52:45.924Z,4.23
2018-03-31T06:55:14.467Z,4.17
2018-03-31T06:57:43.108Z,4.90
2018-03-31T07:00:11.667Z,4.63
2018-03-31T07:02:40.295Z,4.40
2018-03-31T07:05:08.897Z,4.50
2018-03-31T07:07:37.567Z,4.37
2018-03-31T07:10:06.181Z,4.40
2018-03-31T07:12:34.748Z,4.40
2018-03-31T07:15:03.323Z,3.97
2018-03-31T07:17:31.955Z,4.07
2018-03-31T07:20:00.515Z,4.00
2018-03-31T07:22:29.078Z,4.13
2018-03-31T07:24:57.687Z,4.10
2018-03-31T07:27:26.275Z,3.73
2018-03-31T07:29:54.870Z,3.73
2018-03-31T07:32:23.446Z,3.57
2018-03-31T07:34:51.998Z,3.50
2018-03-31T07:37:20.569Z,3.97
2018-03-31T07:39:49.300Z,3.90
2018-03-31T07:42:17.865Z,3.93
2018-03-31T07:44:46.413Z,3.23
2018-03-31T07:47:14.994Z,5.87
2018-03-31T07:49:43.628Z,3.90
2018-03-31T07:52:12.315Z,3.33
2018-03-31T07:54:40.858Z,2.80
2018-03-31T07:57:09.436Z,2.97
2018-03-31T07:59:38.006Z,2.80
2018-03-31T08:02:06.592Z,3.00
2018-03-31T08:04:35.168Z,2.93
2018-03-31T08:07:03.742Z,3.27
2018-03-31T08:09:32.380Z,2.30
2018-03-31T08:12:00.946Z,2.37
2018-03-31T08:14:29.564Z,2.43
2018-03-31T08:16:58.123Z,2.60
2018-03-31T08:19:26.672Z,2.30
2018-03-31T08:21:55.237Z,2.50
2018-03-31T08:24:23.807Z,2.30
2018-03-31T08:26:52.390Z,2.17
2018-03-31T08:29:20.954Z,2.53
2018-03-31T08:31:49.558Z,1.80
2018-03-31T08:34:18.115Z,1.33
2018-03-31T08:36:46.686Z,1.20
2018-03-31T08:39:15.223Z,1.40
2018-03-31T08:41:43.800Z,1.10
2018-03-31T08:44:12.375Z,1.30
2018-03-31T08:46:40.936Z,1.20
2018-03-31T08:49:10.003Z,1.30
2018-03-31T08:51:38.562Z,1.20
2018-03-31T08:54:07.136Z,1.40
2018-03-31T08:56:36.680Z,1.40
2018-03-31T08:59:05.262Z,1.30
2018-03-31T09:01:33.810Z,1.50
2018-03-31T09:04:02.390Z,1.30
2018-03-31T09:06:30.951Z,1.50
2018-03-31T09:08:59.796Z,1.47
2018-03-31T09:11:28.470Z,1.60
2018-03-31T09:13:57.066Z,1.60
2018-03-31T09:16:25.682Z,1.60
2018-03-31T09:18:54.256Z,1.60
2018-03-31T09:21:22.879Z,1.50
2018-03-31T09:23:51.545Z,1.10
2018-03-31T09:26:20.118Z,0.93
2018-03-31T09:28:48.707Z,0.97
2018-03-31T09:31:17.270Z,1.37
2018-03-31T09:33:45.917Z,1.27
2018-03-31T09:36:14.461Z,1.30
2018-03-31T09:38:43.027Z,1.30
2018-03-31T09:41:11.667Z,1.57
2018-03-31T09:43:40.271Z,1.40
2018-03-31T09:46:08.843Z,1.50
2018-03-31T09:48:37.431Z,1.40
2018-03-31T09:51:06.023Z,1.40
2018-03-31T09:53:34.612Z,1.30
2018-03-31T09:56:03.169Z,1.43
2018-03-31T09:58:31.729Z,1.60
2018-03-31T10:01:03.236Z,1.40
2018-03-31T10:03:31.841Z,1.50
2018-03-31T10:06:00.423Z,1.40
2018-03-31T10:08:29.006Z,1.23
2018-03-31T10:10:57.580Z,1.10
2018-03-31T10:13:26.126Z,1.10
2018-03-31T10:15:54.785Z,1.10
2018-03-31T10:18:23.360Z,1.00
2018-03-31T10:20:52.075Z,1.10
2018-03-31T10:23:20.666Z,1.20
2018-03-31T10:25:49.240Z,1.60
2018-03-31T10:28:17.837Z,1.20
2018-03-31T10:30:46.926Z,1.40
2018-03-31T10:33:15.499Z,1.17
2018-03-31T10:35:44.062Z,1.27
2018-03-31T10:38:12.610Z,1.10
2018-03-31T10:40:41.182Z,1.20
2018-03-31T10:43:09.767Z,1.53
2018-03-31T10:45:38.326Z,1.43
2018-03-31T10:48:06.906Z,1.50
2018-03-31T10:50:35.522Z,1.20
2018-03-31T10:53:04.115Z,1.37
2018-03-31T10:55:32.697Z,1.20
2018-03-31T10:58:01.280Z,1.23
2018-03-31T11:00:29.873Z,1.30
2018-03-31T11:02:58.438Z,1.33
2018-03-31T11:05:27.008Z,1.60
2018-03-31T11:07:55.659Z,1.33
2018-03-31T11:10:24.329Z,1.33
2018-03-31T11:12:52.908Z,1.37
2018-03-31T11:15:21.503Z,1.40
2018-03-31T11:17:50.053Z,1.47
2018-03-31T11:20:18.640Z,1.60
2018-03-31T11:22:47.192Z,1.40
2018-03-31T11:25:15.749Z,1.30
2018-03-31T11:27:44.313Z,1.30
2018-03-31T11:30:12.896Z,1.37
2018-03-31T11:32:41.532Z,1.00
2018-03-31T11:35:10.122Z,1.40
2018-03-31T11:37:38.672Z,1.20
2018-03-31T11:40:07.243Z,1.40
2018-03-31T11:42:35.806Z,1.60
2018-03-31T11:45:04.368Z,1.40
2018-03-31T11:47:32.935Z,1.60
2018-03-31T11:50:01.510Z,1.50
2018-03-31T11:52:30.104Z,1.50
2018-03-31T11:54:58.733Z,1.30
2018-03-31T11:57:27.315Z,1.20
2018-03-31T11:59:55.990Z,1.40
2018-03-31T12:02:24.546Z,1.43
2018-03-31T12:04:53.169Z,1.50
2018-03-31T12:07:21.722Z,1.50
2018-03-31T12:09:50.347Z,1.60
2018-03-31T12:12:18.903Z,1.40
2018-03-31T12:14:47.514Z,1.40
2018-03-31T12:17:16.085Z,1.30
2018-03-31T12:19:44.690Z,1.37
2018-03-31T12:22:13.282Z,1.57
2018-03-31T12:24:41.881Z,1.70
2018-03-31T12:27:10.456Z,1.70
2018-03-31T12:29:39.019Z,1.30
2018-03-31T12:32:07.656Z,1.67
2018-03-31T12:34:36.204Z,1.30
2018-03-31T12:37:04.750Z,1.40
2018-03-31T12:39:33.326Z,1.33
2018-03-31T12:42:01.889Z,1.30
2018-03-31T12:44:30.448Z,1.40
2018-03-31T12:46:59.025Z,1.50
2018-03-31T12:49:27.654Z,1.37
2018-03-31T12:51:56.210Z,1.30
2018-03-31T12:54:24.766Z,1.40
2018-03-31T12:56:53.312Z,1.20
2018-03-31T12:59:21.904Z,1.53
2018-03-31T13:01:50.460Z,1.40
2018-03-31T13:04:19.014Z,1.20
2018-03-31T13:06:47.679Z,1.20
2018-03-31T13:09:16.249Z,1.30
2018-03-31T13:11:44.826Z,1.50
2018-03-31T13:14:13.402Z,1.33
2018-03-31T13:16:41.949Z,1.00
2018-03-31T13:19:10.607Z,1.10
2018-03-31T13:21:39.163Z,1.10
2018-03-31T13:24:07.786Z,1.20
2018-03-31T13:26:36.371Z,1.30
2018-03-31T13:29:04.914Z,1.00
2018-03-31T13:31:33.554Z,1.00
2018-03-31T13:34:02.099Z,0.70
2018-03-31T13:36:30.659Z,1.30
2018-03-31T13:38:59.385Z,1.27
2018-03-31T13:41:27.920Z,1.10
2018-03-31T13:43:56.607Z,1.10
2018-03-31T13:46:25.190Z,1.10
2018-03-31T13:48:53.757Z,1.23
2018-03-31T13:51:22.302Z,1.30
2018-03-31T13:53:50.871Z,1.23
2018-03-31T13:56:19.415Z,1.10
2018-03-31T13:58:48.093Z,0.97
2018-03-31T14:01:16.644Z,1.13
2018-03-31T14:03:45.195Z,1.20
2018-03-31T14:06:13.770Z,1.23
2018-03-31T14:08:42.329Z,1.07
2018-03-31T14:11:10.873Z,1.07
2018-03-31T14:13:39.447Z,1.00
2018-03-31T14:16:08.046Z,1.30
2018-03-31T14:18:36.638Z,1.10
2018-03-31T14:21:05.386Z,0.90
2018-03-31T14:23:34.018Z,1.00
2018-03-31T14:26:02.582Z,1.03
2018-03-31T14:28:31.133Z,1.10
2018-03-31T14:30:59.779Z,1.00
2018-03-31T14:33:28.343Z,1.10
2018-03-31T14:35:56.939Z,1.17
2018-03-31T14:38:25.538Z,1.20
2018-03-31T14:40:54.130Z,0.90
2018-03-31T14:43:22.715Z,0.90
2018-03-31T14:45:51.282Z,1.07
2018-03-31T14:48:19.907Z,1.13
2018-03-31T14:50:48.449Z,1.20
2018-03-31T14:53:17.026Z,1.63
2018-03-31T14:55:45.658Z,1.37
2018-03-31T14:58:14.314Z,2.13
2018-03-31T15:00:42.940Z,1.27
2018-03-31T15:03:11.534Z,2.07
2018-03-31T15:05:40.110Z,1.70
2018-03-31T15:08:08.682Z,1.50
2018-03-31T15:10:37.326Z,1.40
2018-03-31T15:13:05.855Z,1.50
2018-03-31T15:15:34.426Z,2.10
2018-03-31T15:18:03.058Z,1.50
2018-03-31T15:20:31.654Z,1.60
2018-03-31T15:23:00.242Z,1.17
2018-03-31T15:25:28.823Z,1.70
2018-03-31T15:27:57.421Z,2.33
2018-03-31T15:30:26.059Z,1.70
2018-03-31T15:32:54.626Z,1.50
2018-03-31T15:35:23.188Z,1.50
2018-03-31T15:37:51.876Z,1.30
2018-03-31T15:40:20.427Z,1.73
2018-03-31T15:42:49.004Z,1.50
2018-03-31T15:45:17.557Z,1.80
2018-03-31T15:47:46.132Z,2.43
2018-03-31T15:50:14.677Z,1.40
2018-03-31T15:52:43.258Z,1.57
2018-03-31T15:55:11.826Z,1.20
2018-03-31T15:57:40.426Z,1.20
2018-03-31T16:00:08.954Z,1.30
2018-03-31T16:02:37.528Z,1.20
2018-03-31T16:05:06.099Z,1.10
2018-03-31T16:07:34.734Z,1.27
2018-03-31T16:10:03.412Z,1.40
2018-03-31T16:12:32.040Z,6.30
2018-03-31T16:15:00.612Z,3.17
2018-03-31T16:17:29.284Z,2.73
2018-03-31T16:19:57.818Z,1.50
2018-03-31T16:22:26.419Z,1.23
2018-03-31T16:24:55.054Z,1.50
2018-03-31T16:27:23.633Z,1.40
2018-03-31T16:29:52.215Z,1.70
2018-03-31T16:32:20.807Z,1.30
2018-03-31T16:34:49.403Z,1.10
2018-03-31T16:37:17.974Z,1.00
2018-03-31T16:39:46.542Z,1.20
2018-03-31T16:42:15.126Z,1.20
2018-03-31T16:44:43.687Z,1.03
2018-03-31T16:47:12.339Z,1.10
2018-03-31T16:49:40.952Z,1.23
2018-03-31T16:52:09.467Z,1.20
2018-03-31T16:54:38.044Z,0.97
2018-03-31T16:57:06.598Z,1.37
2018-03-31T16:59:35.182Z,1.43
2018-03-31T17:02:03.730Z,1.33
2018-03-31T17:04:32.282Z,1.00
2018-03-31T17:07:00.947Z,1.00
2018-03-31T17:09:29.497Z,1.40
2018-03-31T17:11:58.044Z,1.13
2018-03-31T17:14:26.720Z,1.37
2018-03-31T17:16:55.300Z,1.20
2018-03-31T17:19:23.866Z,1.13
2018-03-31T17:21:52.453Z,1.20
2018-03-31T17:24:21.001Z,1.13
2018-03-31T17:26:49.554Z,1.60
2018-03-31T17:29:18.136Z,2.00
2018-03-31T17:31:46.698Z,1.70
2018-03-31T17:34:15.262Z,1.10
2018-03-31T17:36:43.929Z,1.27
2018-03-31T17:39:12.490Z,1.00
2018-03-31T17:41:41.078Z,1.00
2018-03-31T17:44:09.635Z,1.07
2018-03-31T17:46:38.202Z,0.90
2018-03-31T17:49:06.908Z,1.10
2018-03-31T17:51:35.527Z,1.13
2018-03-31T17:54:04.086Z,1.20
2018-03-31T17:56:32.634Z,1.10
2018-03-31T17:59:01.210Z,1.17
2018-03-31T18:01:29.761Z,1.30
2018-03-31T18:03:58.375Z,1.40
2018-03-31T18:06:26.979Z,1.30
2018-03-31T18:08:55.550Z,1.27
2018-03-31T18:11:24.106Z,1.43
2018-03-31T18:13:52.698Z,1.33
2018-03-31T18:16:21.275Z,1.30
2018-03-31T18:18:49.919Z,1.27
2018-03-31T18:21:18.496Z,1.60
2018-03-31T18:23:47.105Z,1.40
2018-03-31T18:26:15.771Z,1.43
2018-03-31T18:28:44.424Z,1.13
2018-03-31T18:31:13.114Z,1.50
2018-03-31T18:33:41.693Z,1.97
2018-03-31T18:36:10.368Z,2.03
2018-03-31T18:38:39.026Z,2.20
2018-03-31T18:41:07.728Z,2.40
2018-03-31T18:43:36.427Z,2.07
2018-03-31T18:46:05.092Z,3.40
2018-03-31T18:48:33.745Z,3.60
2018-03-31T18:51:02.414Z,3.57
2018-03-31T18:53:30.977Z,3.40
2018-03-31T18:55:59.623Z,3.67
2018-03-31T18:58:28.170Z,3.07
2018-03-31T19:00:56.734Z,3.43
2018-03-31T19:03:25.290Z,3.13
2018-03-31T19:05:53.898Z,2.70
2018-03-31T19:08:22.555Z,2.83
2018-03-31T19:10:51.328Z,3.33
2018-03-31T19:13:19.840Z,4.00
2018-03-31T19:15:48.417Z,4.50
2018-03-31T19:18:17.059Z,4.73
2018-03-31T19:20:45.659Z,4.43
2018-03-31T19:23:14.209Z,4.30
2018-03-31T19:25:42.782Z,5.37
2018-03-31T19:28:11.397Z,4.90
2018-03-31T19:30:45.629Z,4.43
2018-03-31T19:33:14.202Z,4.87
2018-03-31T19:35:48.666Z,4.37
2018-03-31T19:38:17.214Z,4.10
2018-03-31T19:40:45.810Z,4.60
2018-03-31T19:43:14.378Z,4.20
2018-03-31T19:45:42.957Z,4.60
2018-03-31T19:48:11.567Z,4.27
2018-03-31T19:50:40.068Z,4.67
2018-03-31T19:53:08.642Z,4.83
2018-03-31T19:55:37.198Z,4.73
2018-03-31T19:58:05.781Z,4.27
2018-03-31T20:00:34.331Z,4.37
2018-03-31T20:03:02.910Z,4.57
2018-03-31T20:05:31.494Z,4.60
2018-03-31T20:08:00.046Z,4.53
2018-03-31T20:10:28.620Z,4.47
2018-03-31T20:12:57.259Z,4.03
2018-03-31T20:15:25.830Z,4.00
2018-03-31T20:17:54.395Z,4.00
2018-03-31T20:20:23.011Z,3.80
2018-03-31T20:22:51.611Z,3.33
2018-03-31T20:25:20.183Z,3.57
2018-03-31T20:27:48.730Z,3.50
2018-03-31T20:30:17.306Z,3.87
2018-03-31T20:32:45.876Z,3.43
2018-03-31T20:35:14.430Z,3.63
2018-03-31T20:37:43.008Z,3.43
2018-03-31T20:40:11.587Z,3.33
2018-03-31T20:42:40.211Z,3.00
2018-03-31T20:45:08.790Z,2.93
2018-03-31T20:47:37.370Z,2.80
2018-03-31T20:50:05.986Z,2.80
2018-03-31T20:52:34.550Z,2.73
2018-03-31T20:55:03.279Z,3.07
2018-03-31T20:57:31.832Z,2.83
2018-03-31T21:00:00.424Z,3.13
2018-03-31T21:02:29.010Z,2.97
2018-03-31T21:04:57.606Z,2.77
2018-03-31T21:07:26.154Z,3.07
2018-03-31T21:09:54.729Z,3.17
2018-03-31T21:12:23.374Z,3.00
2018-03-31T21:14:51.948Z,3.27
2018-03-31T21:17:20.556Z,3.20
2018-03-31T21:19:49.134Z,3.00
2018-03-31T21:22:17.732Z,3.50
2018-03-31T21:24:46.288Z,3.10
2018-03-31T21:27:14.872Z,2.80
2018-03-31T21:29:43.470Z,2.90
2018-03-31T21:32:12.019Z,2.77
2018-03-31T21:34:40.595Z,2.80
2018-03-31T21:37:09.166Z,2.50
2018-03-31T21:39:37.746Z,2.50
2018-03-31T21:42:06.294Z,2.63
2018-03-31T21:44:34.878Z,2.23
2018-03-31T21:47:03.415Z,2.10
2018-03-31T21:49:31.986Z,2.37
2018-03-31T21:52:00.571Z,2.57
2018-03-31T21:54:29.163Z,2.07
2018-03-31T21:56:57.731Z,2.20
2018-03-31T21:59:26.334Z,2.03
2018-03-31T22:01:54.926Z,2.00
2018-03-31T22:04:23.499Z,3.00
2018-03-31T22:06:52.066Z,2.10
2018-03-31T22:09:20.619Z,2.20
2018-03-31T22:11:49.274Z,2.30
2018-03-31T22:14:23.515Z,2.17
2018-03-31T22:16:52.094Z,2.07
2018-03-31T22:19:20.672Z,1.90
2018-03-31T22:21:49.243Z,2.13
2018-03-31T22:24:17.786Z,2.27
2018-03-31T22:26:46.440Z,2.23
2018-03-31T22:29:14.987Z,2.33
2018-03-31T22:31:43.550Z,2.50
2018-03-31T22:34:12.113Z,2.17
2018-03-31T22:36:40.677Z,2.50
2018-03-31T22:39:09.253Z,2.40
2018-03-31T22:41:37.981Z,2.13
2018-03-31T22:44:06.521Z,2.00
2018-03-31T22:46:35.143Z,2.20
2018-03-31T22:49:03.698Z,2.10
2018-03-31T22:51:32.295Z,2.37
2018-03-31T22:54:00.909Z,2.30
2018-03-31T22:56:29.492Z,2.10
2018-03-31T22:58:58.060Z,2.03
2018-03-31T23:01:26.613Z,2.03
2018-03-31T23:03:55.263Z,2.20
2018-03-31T23:06:23.855Z,2.40
2018-03-31T23:08:52.441Z,2.10
2018-03-31T23:11:21.023Z,1.90
2018-03-31T23:13:49.613Z,2.07
2018-03-31T23:16:18.196Z,1.93
2018-03-31T23:18:46.748Z,2.07
2018-03-31T23:21:15.303Z,1.90
2018-03-31T23:23:43.961Z,1.90
2018-03-31T23:26:12.542Z,1.90
2018-03-31T23:28:41.096Z,1.93
2018-03-31T23:31:09.680Z,1.80
2018-03-31T23:33:38.318Z,1.60
2018-03-31T23:36:06.910Z,1.80
2018-03-31T23:38:35.501Z,1.73
2018-03-31T23:41:04.046Z,1.60
2018-03-31T23:43:32.617Z,1.40
2018-03-31T23:46:01.172Z,1.80
2018-03-31T23:48:29.745Z,1.60
2018-03-31T23:50:58.335Z,1.70
2018-03-31T23:53:26.940Z,1.70
2018-03-31T23:55:55.507Z,2.00
2018-03-31T23:58:24.083Z,1.67
